createdAt,value
2023-01-11T00:00:32.676Z,64.35
2023-01-11T00:03:01.006Z,63.35
2023-01-11T00:05:28.131Z,63.27
2023-01-11T00:07:55.255Z,63.45
2023-01-11T00:10:22.667Z,65.50
2023-01-11T00:12:50.014Z,64.03
2023-01-11T00:15:17.536Z,63.90
2023-01-11T00:17:44.945Z,63.64
2023-01-11T00:20:12.076Z,63.73
2023-01-11T00:22:39.224Z,62.00
2023-01-11T00:25:06.697Z,61.59
2023-01-11T00:27:33.825Z,61.55
2023-01-11T00:30:01.035Z,61.22
2023-01-11T00:32:28.831Z,60.32
2023-01-11T00:34:56.018Z,61.14
2023-01-11T00:37:23.167Z,60.81
2023-01-11T00:39:51.538Z,63.43
2023-01-11T00:42:37.215Z,62.22
2023-01-11T00:45:23.380Z,64.43
2023-01-11T00:48:04.725Z,61.90
2023-01-11T00:50:33.656Z,64.82
2023-01-11T00:53:00.917Z,59.89
2023-01-11T00:55:28.301Z,60.35
2023-01-11T00:57:55.756Z,61.14
2023-01-11T01:00:22.947Z,60.74
2023-01-11T01:02:50.412Z,62.71
2023-01-11T01:05:18.136Z,62.19
2023-01-11T01:07:45.340Z,61.66
2023-01-11T01:10:13.173Z,64.09
2023-01-11T01:12:59.011Z,61.79
2023-01-11T01:15:26.210Z,62.30
2023-01-11T01:17:55.056Z,61.90
2023-01-11T01:20:22.935Z,60.86
2023-01-11T01:22:50.260Z,61.68
2023-01-11T01:25:17.656Z,62.33
2023-01-11T01:27:44.765Z,60.36
2023-01-11T01:30:12.099Z,60.25
2023-01-11T01:32:39.908Z,61.89
2023-01-11T01:35:07.167Z,64.50
2023-01-11T01:37:34.316Z,61.94
2023-01-11T01:40:01.761Z,62.96
2023-01-11T01:42:28.897Z,63.24
2023-01-11T01:45:34.767Z,62.21
2023-01-11T01:48:02.800Z,62.54
2023-01-11T01:50:29.928Z,62.46
2023-01-11T01:52:58.981Z,64.30
2023-01-11T01:55:27.940Z,65.38
2023-01-11T01:57:55.289Z,63.21
2023-01-11T02:00:22.410Z,61.26
2023-01-11T02:02:50.199Z,62.79
2023-01-11T02:05:17.735Z,61.69
2023-01-11T02:07:45.015Z,63.26
2023-01-11T02:10:19.820Z,62.58
2023-01-11T02:13:05.080Z,62.97
2023-01-11T02:15:32.353Z,66.16
2023-01-11T02:17:59.761Z,66.00
2023-01-11T02:20:26.920Z,64.13
2023-01-11T02:23:12.547Z,65.68
2023-01-11T02:25:52.490Z,66.16
2023-01-11T02:28:38.433Z,65.26
2023-01-11T02:31:09.060Z,65.80
2023-01-11T02:33:42.889Z,63.27
2023-01-11T02:36:13.518Z,62.54
2023-01-11T02:38:46.072Z,63.32
2023-01-11T02:41:20.031Z,62.36
2023-01-11T02:44:16.297Z,62.16
2023-01-11T02:46:43.736Z,61.91
2023-01-11T02:49:18.045Z,60.67
2023-01-11T02:51:55.352Z,59.72
2023-01-11T02:54:23.296Z,58.62
2023-01-11T02:56:52.006Z,58.68
2023-01-11T02:59:20.839Z,57.19
2023-01-11T03:01:49.128Z,56.23
2023-01-11T03:04:29.972Z,57.42
2023-01-11T03:07:04.721Z,57.04
2023-01-11T03:09:35.160Z,55.72
2023-01-11T03:12:24.582Z,59.23
2023-01-11T03:14:55.123Z,56.24
2023-01-11T03:17:35.504Z,56.31
2023-01-11T03:20:10.161Z,55.52
2023-01-11T03:22:52.645Z,57.28
2023-01-11T03:25:24.704Z,57.30
2023-01-11T03:27:56.388Z,55.79
2023-01-11T03:30:23.742Z,55.11
2023-01-11T03:32:52.212Z,57.13
2023-01-11T03:35:30.548Z,56.63
2023-01-11T03:38:00.446Z,57.28
2023-01-11T03:40:28.743Z,57.70
2023-01-11T03:43:11.157Z,58.14
2023-01-11T03:45:46.634Z,56.76
2023-01-11T03:48:18.551Z,56.50
2023-01-11T03:50:46.244Z,56.22
2023-01-11T03:53:13.395Z,58.60
2023-01-11T03:55:40.961Z,56.04
2023-01-11T03:58:09.122Z,54.12
2023-01-11T04:00:36.340Z,55.81
2023-01-11T04:03:03.863Z,54.59
2023-01-11T04:05:30.998Z,54.12
2023-01-11T04:07:58.118Z,57.19
2023-01-11T04:10:25.508Z,55.96
2023-01-11T04:12:52.695Z,57.52
2023-01-11T04:15:19.963Z,57.22
2023-01-11T04:17:47.400Z,58.55
2023-01-11T04:20:14.609Z,58.09
2023-01-11T04:22:41.748Z,58.36
2023-01-11T04:25:09.995Z,57.11
2023-01-11T04:27:37.208Z,58.22
2023-01-11T04:30:04.579Z,56.64
2023-01-11T04:32:32.003Z,54.64
2023-01-11T04:34:59.180Z,54.26
2023-01-11T04:37:26.379Z,53.63
2023-01-11T04:39:53.725Z,54.10
2023-01-11T04:42:21.143Z,54.57
2023-01-11T04:44:49.343Z,53.61
2023-01-11T04:47:17.152Z,52.73
2023-01-11T04:49:44.327Z,53.36
2023-01-11T04:52:12.300Z,52.62
2023-01-11T04:54:39.924Z,53.85
2023-01-11T04:57:07.320Z,53.21
2023-01-11T04:59:34.467Z,55.38
2023-01-11T05:02:02.216Z,53.32
2023-01-11T05:04:29.570Z,54.23
2023-01-11T05:06:56.887Z,56.31
2023-01-11T05:09:24.338Z,56.98
2023-01-11T05:11:51.539Z,55.85
2023-01-11T05:14:18.723Z,55.84
2023-01-11T05:16:46.310Z,56.55
2023-01-11T05:19:13.638Z,55.89
2023-01-11T05:21:41.523Z,55.79
2023-01-11T05:24:15.632Z,57.34
2023-01-11T05:26:43.379Z,56.59
2023-01-11T05:29:12.386Z,55.08
2023-01-11T05:31:40.473Z,53.79
2023-01-11T05:34:07.899Z,55.22
2023-01-11T05:36:35.506Z,55.65
2023-01-11T05:39:03.219Z,55.48
2023-01-11T05:41:30.382Z,53.78
2023-01-11T05:44:16.354Z,54.46
2023-01-11T05:46:44.047Z,54.00
2023-01-11T05:49:12.230Z,53.99
2023-01-11T05:51:39.453Z,53.70
2023-01-11T05:54:07.443Z,53.50
2023-01-11T05:56:34.960Z,54.82
2023-01-11T05:59:04.016Z,53.15
2023-01-11T06:01:31.472Z,51.69
2023-01-11T06:03:58.844Z,52.51
2023-01-11T06:06:26.065Z,54.21
2023-01-11T06:08:53.279Z,53.14
2023-01-11T06:11:20.745Z,53.39
2023-01-11T06:13:47.954Z,54.91
2023-01-11T06:16:18.944Z,54.78
2023-01-11T06:18:47.530Z,54.98
2023-01-11T06:21:15.212Z,54.73
2023-01-11T06:23:43.973Z,54.51
2023-01-11T06:26:12.217Z,56.70
2023-01-11T06:28:39.518Z,53.85
2023-01-11T06:31:06.839Z,53.29
2023-01-11T06:33:34.476Z,52.68
2023-01-11T06:36:08.709Z,51.83
2023-01-11T06:38:36.231Z,51.63
2023-01-11T06:41:04.987Z,53.33
2023-01-11T06:43:32.240Z,52.21
2023-01-11T06:46:00.099Z,51.56
2023-01-11T06:48:27.581Z,52.30
2023-01-11T06:50:55.916Z,51.47
2023-01-11T06:53:23.848Z,51.65
2023-01-11T06:55:51.973Z,53.22
2023-01-11T06:58:19.771Z,53.78
2023-01-11T07:00:47.263Z,53.17
2023-01-11T07:03:14.508Z,50.36
2023-01-11T07:05:43.945Z,48.55
2023-01-11T07:08:11.573Z,45.01
2023-01-11T07:10:38.694Z,43.30
2023-01-11T07:13:05.999Z,42.04
2023-01-11T07:15:33.696Z,41.14
2023-01-11T07:18:01.184Z,41.10
2023-01-11T07:20:28.677Z,41.68
2023-01-11T07:22:59.505Z,40.92
2023-01-11T07:25:27.789Z,39.16
2023-01-11T07:28:01.884Z,38.97
2023-01-11T07:30:30.180Z,37.31
2023-01-11T07:32:57.754Z,37.79
2023-01-11T07:35:25.568Z,37.64
2023-01-11T07:37:54.182Z,39.06
2023-01-11T07:40:21.641Z,38.78
2023-01-11T07:43:08.344Z,39.65
2023-01-11T07:45:45.311Z,38.92
2023-01-11T07:48:13.851Z,39.50
2023-01-11T07:50:44.244Z,35.95
2023-01-11T07:53:12.547Z,35.17
2023-01-11T07:55:40.251Z,36.29
2023-01-11T07:58:08.615Z,37.64
2023-01-11T08:00:35.987Z,37.54
2023-01-11T08:03:03.734Z,34.77
2023-01-11T08:05:31.055Z,35.12
2023-01-11T08:07:58.408Z,36.18
2023-01-11T08:10:25.893Z,35.30
2023-01-11T08:13:12.088Z,36.46
2023-01-11T08:15:42.649Z,35.77
2023-01-11T08:18:11.467Z,38.75
2023-01-11T08:20:39.182Z,36.59
2023-01-11T08:23:07.082Z,38.04
2023-01-11T08:25:34.446Z,36.86
2023-01-11T08:28:02.502Z,38.26
2023-01-11T08:30:30.049Z,36.11
2023-01-11T08:32:57.791Z,37.66
2023-01-11T08:35:25.439Z,36.04
2023-01-11T08:37:52.935Z,34.78
2023-01-11T08:40:22.315Z,33.46
2023-01-11T08:42:57.019Z,34.03
2023-01-11T08:45:24.768Z,33.91
2023-01-11T08:47:52.354Z,35.98
2023-01-11T08:50:19.939Z,32.80
2023-01-11T08:52:48.527Z,34.64
2023-01-11T08:55:15.728Z,35.31
2023-01-11T08:57:43.002Z,34.84
2023-01-11T09:00:10.848Z,34.72
2023-01-11T09:02:38.049Z,36.59
2023-01-11T09:05:05.535Z,35.09
2023-01-11T09:07:32.978Z,34.20
2023-01-11T09:10:00.186Z,38.98
2023-01-11T09:12:27.758Z,36.65
2023-01-11T09:14:55.203Z,37.00
2023-01-11T09:17:22.481Z,37.00
2023-01-11T09:19:49.715Z,34.47
2023-01-11T09:22:17.358Z,33.73
2023-01-11T09:24:44.568Z,32.28
2023-01-11T09:27:12.044Z,33.41
2023-01-11T09:29:39.668Z,35.48
2023-01-11T09:32:06.974Z,34.98
2023-01-11T09:34:35.022Z,32.08
2023-01-11T09:37:07.168Z,30.29
2023-01-11T09:39:35.680Z,27.76
2023-01-11T09:42:10.605Z,29.14
2023-01-11T09:44:58.480Z,29.48
2023-01-11T09:47:37.037Z,29.85
2023-01-11T09:50:11.884Z,31.06
2023-01-11T09:52:42.327Z,33.28
2023-01-11T09:55:15.617Z,33.82
2023-01-11T09:57:47.659Z,33.20
2023-01-11T10:00:21.514Z,31.87
2023-01-11T10:03:01.338Z,30.89
2023-01-11T10:05:37.921Z,30.77
2023-01-11T10:14:01.399Z,27.61
2023-01-11T10:18:38.492Z,24.35
2023-01-11T10:20:13.094Z,23.14
2023-01-11T10:22:43.720Z,21.95
2023-01-11T10:25:18.825Z,21.82
2023-01-11T10:28:00.857Z,22.11
2023-01-11T10:30:41.828Z,22.87
2023-01-11T10:33:43.379Z,22.01
2023-01-11T10:36:38.004Z,20.90
2023-01-11T10:39:35.852Z,21.70
2023-01-11T10:42:29.770Z,22.21
2023-01-11T10:45:02.615Z,22.28
2023-01-11T10:47:50.333Z,22.18
2023-01-11T10:50:17.672Z,21.33
2023-01-11T10:53:08.560Z,21.73
2023-01-11T10:55:43.237Z,23.97
2023-01-11T10:58:11.486Z,24.88
2023-01-11T11:01:04.123Z,23.85
2023-01-11T11:03:38.866Z,23.71
2023-01-11T11:06:08.976Z,23.69
2023-01-11T11:08:46.649Z,22.99
2023-01-11T11:11:16.979Z,21.80
2023-01-11T11:14:03.336Z,22.05
2023-01-11T11:16:48.740Z,23.29
2023-01-11T11:19:17.019Z,23.80
2023-01-11T11:21:44.244Z,24.80
2023-01-11T11:24:20.781Z,24.56
2023-01-11T11:26:49.891Z,25.18
2023-01-11T11:29:21.157Z,25.03
2023-01-11T11:31:48.622Z,25.12
2023-01-11T11:34:20.188Z,26.05
2023-01-11T11:36:48.204Z,27.25
2023-01-11T11:39:19.771Z,28.64
2023-01-11T11:41:50.863Z,28.77
2023-01-11T11:44:25.990Z,31.52
2023-01-11T11:47:16.656Z,32.59
2023-01-11T11:49:44.343Z,33.43
2023-01-11T11:52:14.845Z,34.03
2023-01-11T11:54:43.402Z,34.96
2023-01-11T11:57:13.864Z,35.29
2023-01-11T11:59:43.821Z,35.73
2023-01-11T12:02:18.180Z,36.53
2023-01-11T12:04:49.352Z,37.41
2023-01-11T12:07:18.140Z,37.84
2023-01-11T12:09:49.343Z,39.17
2023-01-11T12:12:17.576Z,40.52
2023-01-11T12:14:45.666Z,39.07
2023-01-11T12:17:31.884Z,39.58
2023-01-11T12:19:59.348Z,38.99
2023-01-11T12:22:30.583Z,39.62
2023-01-11T12:25:03.999Z,38.67
2023-01-11T12:27:37.494Z,40.48
2023-01-11T12:30:20.310Z,40.69
2023-01-11T12:33:01.195Z,41.65
2023-01-11T12:35:35.203Z,39.94
2023-01-11T12:38:02.612Z,40.33
2023-01-11T12:40:29.758Z,42.35
2023-01-11T12:43:02.864Z,41.77
2023-01-11T12:45:40.194Z,41.66
2023-01-11T12:48:16.280Z,42.69
2023-01-11T12:51:02.157Z,42.35
2023-01-11T12:53:40.061Z,40.84
2023-01-11T12:56:37.124Z,40.50
2023-01-11T12:59:22.811Z,41.04
2023-01-11T13:01:54.700Z,41.52
2023-01-11T13:04:40.802Z,41.99
2023-01-11T13:07:17.360Z,41.68
2023-01-11T13:09:53.630Z,41.72
2023-01-11T13:12:24.167Z,41.76
2023-01-11T13:15:09.928Z,41.72
2023-01-11T13:17:38.615Z,41.68
2023-01-11T13:20:18.048Z,41.92
2023-01-11T13:22:47.110Z,40.90
2023-01-11T13:25:19.137Z,40.13
2023-01-11T13:27:46.587Z,40.72
2023-01-11T13:30:14.053Z,40.59
2023-01-11T13:32:43.207Z,39.86
2023-01-11T13:35:17.863Z,40.00
2023-01-11T13:37:53.451Z,40.44
2023-01-11T13:40:28.830Z,40.01
2023-01-11T13:43:06.988Z,40.50
2023-01-11T13:45:54.881Z,40.88
2023-01-11T13:48:24.452Z,40.57
2023-01-11T13:50:58.713Z,41.13
2023-01-11T13:53:28.928Z,40.65
2023-01-11T13:55:57.628Z,41.39
2023-01-11T13:58:30.054Z,40.61
2023-01-11T14:00:57.584Z,40.09
2023-01-11T14:03:29.294Z,40.49
2023-01-11T14:05:59.630Z,40.53
2023-01-11T14:08:39.075Z,40.52
2023-01-11T14:11:09.140Z,40.99
2023-01-11T14:14:18.360Z,42.69
2023-01-11T14:17:00.761Z,41.43
2023-01-11T14:19:33.431Z,41.01
2023-01-11T14:22:24.540Z,40.85
2023-01-11T14:25:12.241Z,41.59
2023-01-11T14:27:59.738Z,42.52
2023-01-11T14:30:46.208Z,41.17
2023-01-11T14:33:25.784Z,41.25
2023-01-11T14:36:04.376Z,41.08
2023-01-11T14:38:47.773Z,41.13
2023-01-11T14:41:15.239Z,41.49
2023-01-11T14:44:00.831Z,41.26
2023-01-11T14:46:31.340Z,41.24
2023-01-11T14:49:20.723Z,40.96
2023-01-11T14:51:58.932Z,41.31
2023-01-11T14:54:27.433Z,41.35
2023-01-11T14:56:55.845Z,42.24
2023-01-11T14:59:24.824Z,42.16
2023-01-11T15:02:04.456Z,41.47
2023-01-11T15:04:33.283Z,41.46
2023-01-11T15:07:00.736Z,41.51
2023-01-11T15:09:57.726Z,41.32
2023-01-11T15:12:25.888Z,41.30
2023-01-11T15:14:56.760Z,41.64
2023-01-11T15:17:43.757Z,41.49
2023-01-11T15:20:12.164Z,41.65
2023-01-11T15:22:39.329Z,41.56
2023-01-11T15:25:22.031Z,41.88
2023-01-11T15:27:50.303Z,42.32
2023-01-11T15:30:30.222Z,42.72
2023-01-11T15:33:16.668Z,42.55
2023-01-11T15:35:56.236Z,42.86
2023-01-11T15:38:25.408Z,42.72
2023-01-11T15:40:52.605Z,42.25
2023-01-11T15:43:46.341Z,42.73
2023-01-11T15:46:52.480Z,42.75
2023-01-11T15:49:39.894Z,42.55
2023-01-11T15:52:07.333Z,42.23
2023-01-11T15:54:41.943Z,41.93
2023-01-11T15:57:09.318Z,42.46
2023-01-11T16:00:02.642Z,42.00
2023-01-11T16:02:45.670Z,42.50
2023-01-11T16:05:15.037Z,43.23
2023-01-11T16:07:43.672Z,44.08
2023-01-11T16:10:35.820Z,43.66
2023-01-11T16:13:03.264Z,43.46
2023-01-11T16:15:38.545Z,43.77
2023-01-11T16:18:14.634Z,43.67
2023-01-11T16:20:42.910Z,43.62
2023-01-11T16:23:13.430Z,43.71
2023-01-11T16:25:40.945Z,44.61
2023-01-11T16:28:08.273Z,44.00
2023-01-11T16:30:35.880Z,44.14
2023-01-11T16:33:29.449Z,43.42
2023-01-11T16:36:03.757Z,43.20
2023-01-11T16:38:31.027Z,42.99
2023-01-11T16:40:58.661Z,43.32
2023-01-11T16:43:26.702Z,44.66
2023-01-11T16:45:54.422Z,43.61
2023-01-11T16:48:21.859Z,43.64
2023-01-11T16:51:02.236Z,43.96
2023-01-11T16:53:30.429Z,43.94
2023-01-11T16:56:03.004Z,43.98
2023-01-11T16:58:30.973Z,44.29
2023-01-11T17:00:58.970Z,44.08
2023-01-11T17:03:27.601Z,43.93
2023-01-11T17:05:57.795Z,44.27
2023-01-11T17:08:26.465Z,43.84
2023-01-11T17:10:54.682Z,44.74
2023-01-11T17:13:40.729Z,44.71
2023-01-11T17:16:11.800Z,44.71
2023-01-11T17:18:42.841Z,43.91
2023-01-11T17:21:20.380Z,43.67
2023-01-11T17:23:48.262Z,44.36
2023-01-11T17:26:22.870Z,44.61
2023-01-11T17:28:51.635Z,44.27
2023-01-11T17:31:23.974Z,44.23
2023-01-11T17:34:02.269Z,44.58
2023-01-11T17:36:29.668Z,44.28
2023-01-11T17:38:58.034Z,43.53
2023-01-11T17:41:47.219Z,44.71
2023-01-11T17:44:40.286Z,44.98
2023-01-11T17:47:08.561Z,44.52
2023-01-11T17:49:36.172Z,44.11
2023-01-11T17:52:10.218Z,42.85
2023-01-11T17:54:37.754Z,43.21
2023-01-11T17:57:04.939Z,42.68
2023-01-11T17:59:32.288Z,43.32
2023-01-11T18:02:13.547Z,43.19
2023-01-11T18:04:41.193Z,43.53
2023-01-11T18:07:17.937Z,43.49
2023-01-11T18:09:49.156Z,43.97
2023-01-11T18:12:29.509Z,44.46
2023-01-11T18:14:57.821Z,44.71
2023-01-11T18:17:37.567Z,44.82
2023-01-11T18:20:14.315Z,44.59
2023-01-11T18:22:53.699Z,45.02
2023-01-11T18:25:24.771Z,44.91
2023-01-11T18:27:52.149Z,45.67
2023-01-11T18:30:35.621Z,45.32
2023-01-11T18:33:03.803Z,44.86
2023-01-11T18:35:31.041Z,44.98
2023-01-11T18:37:58.243Z,45.21
2023-01-11T18:40:25.831Z,44.67
2023-01-11T18:42:53.329Z,44.88
2023-01-11T18:45:21.898Z,45.25
2023-01-11T18:47:49.363Z,45.65
2023-01-11T18:50:19.466Z,45.85
2023-01-11T18:52:47.004Z,46.94
2023-01-11T18:55:14.596Z,47.48
2023-01-11T18:57:42.469Z,47.12
2023-01-11T19:00:11.234Z,46.53
2023-01-11T19:02:43.002Z,45.98
2023-01-11T19:05:14.241Z,45.49
2023-01-11T19:07:42.204Z,46.53
2023-01-11T19:10:13.284Z,45.98
2023-01-11T19:12:41.218Z,45.70
2023-01-11T19:15:08.861Z,46.53
2023-01-11T19:17:36.274Z,45.92
2023-01-11T19:20:03.841Z,44.82
2023-01-11T19:22:32.492Z,45.19
2023-01-11T19:24:59.650Z,44.91
2023-01-11T19:27:26.904Z,44.94
2023-01-11T19:29:57.595Z,45.37
2023-01-11T19:32:25.709Z,45.54
2023-01-11T19:34:53.362Z,45.38
2023-01-11T19:37:21.112Z,45.12
2023-01-11T19:39:48.457Z,45.39
2023-01-11T19:42:15.900Z,45.50
2023-01-11T19:44:43.778Z,45.43
2023-01-11T19:47:13.179Z,44.90
2023-01-11T19:49:41.469Z,45.26
2023-01-11T19:52:13.402Z,45.44
2023-01-11T19:54:44.721Z,45.54
2023-01-11T19:57:14.575Z,45.77
2023-01-11T19:59:42.168Z,45.62
2023-01-11T20:02:10.910Z,44.85
2023-01-11T20:04:39.236Z,44.79
2023-01-11T20:07:06.984Z,45.20
2023-01-11T20:09:37.462Z,45.16
2023-01-11T20:12:05.782Z,45.29
2023-01-11T20:14:33.917Z,45.54
2023-01-11T20:17:01.242Z,44.84
2023-01-11T20:19:28.721Z,45.60
2023-01-11T20:21:56.543Z,45.59
2023-01-11T20:24:30.380Z,46.42
2023-01-11T20:26:58.650Z,45.91
2023-01-11T20:29:25.935Z,45.04
2023-01-11T20:31:53.384Z,44.87
2023-01-11T20:34:21.364Z,45.16
2023-01-11T20:36:49.058Z,45.32
2023-01-11T20:39:17.470Z,46.21
2023-01-11T20:41:48.010Z,46.99
2023-01-11T20:44:16.159Z,47.14
2023-01-11T20:46:45.147Z,46.00
2023-01-11T20:49:14.011Z,45.67
2023-01-11T20:51:41.457Z,46.30
2023-01-11T20:54:09.203Z,46.02
2023-01-11T20:56:38.465Z,45.66
2023-01-11T20:59:06.885Z,47.27
2023-01-11T21:01:34.272Z,46.45
2023-01-11T21:04:02.827Z,47.81
2023-01-11T21:06:30.498Z,47.52
2023-01-11T21:08:58.584Z,47.63
2023-01-11T21:11:26.101Z,46.42
2023-01-11T21:13:54.257Z,46.98
2023-01-11T21:16:24.339Z,47.80
2023-01-11T21:18:55.819Z,46.82
2023-01-11T21:21:23.184Z,47.73
2023-01-11T21:23:53.108Z,46.91
2023-01-11T21:26:20.669Z,46.64
2023-01-11T21:29:14.160Z,46.42
2023-01-11T21:31:41.963Z,46.75
2023-01-11T21:34:10.386Z,46.49
2023-01-11T21:36:37.731Z,46.17
2023-01-11T21:39:05.162Z,45.99
2023-01-11T21:41:51.858Z,46.28
2023-01-11T21:44:19.836Z,46.89
2023-01-11T21:46:47.107Z,47.17
2023-01-11T21:49:14.359Z,47.02
2023-01-11T21:51:42.110Z,46.39
2023-01-11T21:54:10.619Z,46.93
2023-01-11T21:56:38.241Z,46.50
2023-01-11T21:59:05.757Z,46.82
2023-01-11T22:01:32.934Z,48.29
2023-01-11T22:04:04.198Z,47.92
2023-01-11T22:06:31.418Z,46.05
2023-01-11T22:08:58.780Z,47.45
2023-01-11T22:11:26.254Z,46.29
2023-01-11T22:13:53.433Z,46.38
2023-01-11T22:16:21.603Z,45.85
2023-01-11T22:18:49.097Z,48.27
2023-01-11T22:21:17.914Z,48.20
2023-01-11T22:23:45.985Z,46.29
2023-01-11T22:26:17.764Z,45.32
2023-01-11T22:29:04.237Z,46.10
2023-01-11T22:31:31.959Z,46.08
2023-01-11T22:33:59.374Z,45.73
2023-01-11T22:36:27.184Z,46.40
2023-01-11T22:38:55.215Z,47.59
2023-01-11T22:41:23.003Z,47.01
2023-01-11T22:43:50.214Z,48.30
2023-01-11T22:46:18.667Z,47.04
2023-01-11T22:48:47.145Z,49.37
2023-01-11T22:51:15.286Z,48.24
2023-01-11T22:53:43.748Z,48.23
2023-01-11T22:56:11.439Z,48.27
2023-01-11T22:58:38.758Z,47.56
2023-01-11T23:01:22.522Z,48.04
2023-01-11T23:03:50.181Z,47.64
2023-01-11T23:06:18.875Z,47.45
2023-01-11T23:08:46.310Z,47.75
2023-01-11T23:11:15.652Z,46.50
2023-01-11T23:13:52.453Z,46.76
2023-01-11T23:16:19.925Z,47.13
2023-01-11T23:18:48.385Z,49.68
2023-01-11T23:21:16.600Z,50.64
2023-01-11T23:23:43.792Z,50.11
2023-01-11T23:26:17.864Z,49.38
2023-01-11T23:28:45.768Z,49.43
2023-01-11T23:31:17.257Z,49.66
2023-01-11T23:33:54.940Z,48.70
2023-01-11T23:36:26.337Z,48.99
2023-01-11T23:38:53.672Z,48.18
2023-01-11T23:41:40.058Z,49.49
2023-01-11T23:44:09.252Z,49.59
2023-01-11T23:46:55.560Z,48.27
2023-01-11T23:49:24.731Z,46.85
2023-01-11T23:51:51.982Z,46.38
2023-01-11T23:54:19.417Z,46.45
2023-01-11T23:56:46.958Z,47.00
2023-01-11T23:59:14.103Z,46.97
